Time;durP1;ratioP1;P1;durP2;ratioP2;P2;SDS_P1;SDS_P2;PMS_P1;PMS_P2;Temp;Humidity;BMP_temperature;BMP_pressure;BME280_temperature;BME280_humidity;BME280_pressure;Samples;Min_cycle;Max_cycle;Signal;HPM_P1;HPM_P2
2021/09/17 00:01:23;;;;;;;9.90;8.67;;;;;;;;;;5035330;28;20224;-77
2021/09/17 00:04:27;;;;;;;13.20;9.13;;;;;;;;;;5035543;28;20216;-77
2021/09/17 00:07:31;;;;;;;9.93;8.57;;;;;;;;;;5016194;28;20675;-77
2021/09/17 00:10:35;;;;;;;11.27;8.93;;;;;;;;;;5029914;28;20213;-77
2021/09/17 00:13:39;;;;;;;13.27;8.60;;;;;;;;;;5035319;28;20185;-77
2021/09/17 00:16:44;;;;;;;11.47;8.77;;;;;;;;;;5034901;28;20200;-77
2021/09/17 00:19:47;;;;;;;11.97;9.27;;;;;;;;;;5035624;28;20550;-77
2021/09/17 00:22:51;;;;;;;14.63;9.47;;;;;;;;;;5034798;28;20533;-77
2021/09/17 00:25:56;;;;;;;10.97;9.07;;;;;;;;;;5034967;28;20536;-77
2021/09/17 00:29:00;;;;;;;13.57;9.23;;;;;;;;;;5034684;28;20651;-77
2021/09/17 00:32:04;;;;;;;12.73;8.30;;;;;;;;;;5024553;28;20216;-77
2021/09/17 00:35:09;;;;;;;11.47;8.87;;;;;;;;;;5034861;28;20201;-77
2021/09/17 00:38:13;;;;;;;15.93;9.03;;;;;;;;;;5034869;28;20224;-77
2021/09/17 00:41:17;;;;;;;13.47;8.50;;;;;;;;;;5034037;28;20220;-77
2021/09/17 00:44:26;;;;;;;11.70;9.47;;;;;;;;;;5034202;28;20204;-77
2021/09/17 00:47:30;;;;;;;12.60;9.37;;;;;;;;;;5025171;28;20196;-77
2021/09/17 00:50:35;;;;;;;13.20;8.53;;;;;;;;;;5034671;28;20690;-77
2021/09/17 00:53:39;;;;;;;15.30;9.60;;;;;;;;;;5035126;28;20176;-76
2021/09/17 00:56:44;;;;;;;12.60;9.07;;;;;;;;;;5034746;28;20189;-77
2021/09/17 00:59:48;;;;;;;11.80;8.97;;;;;;;;;;5021986;28;20228;-77
2021/09/17 01:02:52;;;;;;;13.00;9.03;;;;;;;;;;5030591;28;20659;-77
2021/09/17 01:06:10;;;;;;;12.00;7.93;;;;;;;;;;5033885;28;20192;-78
2021/09/17 01:09:14;;;;;;;11.37;8.63;;;;;;;;;;5022089;28;20180;-78
2021/09/17 01:12:20;;;;;;;12.40;8.43;;;;;;;;;;5021940;28;20225;-76
2021/09/17 01:15:24;;;;;;;11.80;8.47;;;;;;;;;;5033807;28;20208;-77
2021/09/17 01:18:28;;;;;;;14.73;8.77;;;;;;;;;;5021491;28;20216;-77
2021/09/17 01:21:32;;;;;;;12.30;8.57;;;;;;;;;;5034397;28;20212;-77
2021/09/17 01:24:38;;;;;;;12.03;9.07;;;;;;;;;;5034708;28;20180;-77
2021/09/17 01:27:44;;;;;;;11.00;8.50;;;;;;;;;;5033472;28;20189;-77
2021/09/17 01:30:48;;;;;;;11.00;8.50;;;;;;;;;;5033292;28;20216;-77
2021/09/17 01:33:52;;;;;;;13.07;9.20;;;;;;;;;;5021706;28;20204;-77
2021/09/17 01:36:57;;;;;;;15.17;9.07;;;;;;;;;;5021914;28;20204;-77
2021/09/17 01:40:01;;;;;;;13.37;10.10;;;;;;;;;;5033075;28;20204;-77
2021/09/17 01:43:05;;;;;;;16.87;9.53;;;;;;;;;;5034226;28;20197;-77
2021/09/17 01:46:09;;;;;;;11.63;9.47;;;;;;;;;;5033085;28;20200;-77
2021/09/17 01:49:13;;;;;;;12.97;9.77;;;;;;;;;;5023206;28;20188;-77
2021/09/17 01:52:18;;;;;;;13.90;9.03;;;;;;;;;;5033982;28;20221;-77
2021/09/17 01:55:23;;;;;;;15.50;9.17;;;;;;;;;;5032873;28;20193;-77
2021/09/17 01:58:28;;;;;;;12.23;9.43;;;;;;;;;;5033218;28;20212;-77
2021/09/17 02:01:32;;;;;;;15.23;9.90;;;;;;;;;;5025677;28;20224;-77
2021/09/17 02:04:36;;;;;;;11.57;8.87;;;;;;;;;;5033166;28;20209;-77
2021/09/17 02:07:41;;;;;;;16.23;8.33;;;;;;;;;;5020669;28;20184;-77
2021/09/17 02:10:45;;;;;;;10.40;8.43;;;;;;;;;;5033415;28;20216;-77
2021/09/17 02:13:49;;;;;;;14.80;9.03;;;;;;;;;;5032593;28;20529;-77
2021/09/17 02:16:53;;;;;;;11.00;8.77;;;;;;;;;;5033052;28;20185;-77
2021/09/17 02:19:58;;;;;;;11.23;8.53;;;;;;;;;;5032860;28;20220;-78
2021/09/17 02:23:02;;;;;;;11.50;9.03;;;;;;;;;;5032383;28;20192;-77
2021/09/17 02:26:06;;;;;;;12.10;9.47;;;;;;;;;;5011981;28;20532;-77
2021/09/17 02:29:10;;;;;;;15.30;8.80;;;;;;;;;;5032617;28;20189;-77
2021/09/17 02:32:14;;;;;;;14.33;9.27;;;;;;;;;;5031598;28;20216;-77
2021/09/17 02:35:18;;;;;;;13.97;9.33;;;;;;;;;;5033567;28;20185;-77
2021/09/17 02:38:22;;;;;;;11.33;8.50;;;;;;;;;;5032468;28;20188;-77
2021/09/17 02:41:26;;;;;;;12.07;9.33;;;;;;;;;;5032182;28;20212;-77
2021/09/17 02:44:31;;;;;;;10.83;9.20;;;;;;;;;;5033383;28;20177;-76
2021/09/17 02:47:35;;;;;;;12.73;8.83;;;;;;;;;;5016352;28;20185;-77
2021/09/17 02:50:39;;;;;;;13.23;9.33;;;;;;;;;;5032823;28;20224;-77
2021/09/17 02:53:43;;;;;;;13.43;8.87;;;;;;;;;;5032048;28;20180;-77
2021/09/17 02:56:48;;;;;;;12.10;9.13;;;;;;;;;;5020882;28;20188;-77
2021/09/17 02:59:52;;;;;;;12.30;8.77;;;;;;;;;;5036618;28;20208;-76
2021/09/17 03:02:57;;;;;;;15.67;9.07;;;;;;;;;;5054222;23;20227;-72
2021/09/17 03:06:01;;;;;;;13.10;9.00;;;;;;;;;;5057298;28;20181;-73
2021/09/17 03:09:05;;;;;;;12.23;9.30;;;;;;;;;;5060882;28;20533;-73
2021/09/17 03:12:09;;;;;;;15.33;9.33;;;;;;;;;;5075073;28;20689;-72
2021/09/17 03:15:14;;;;;;;16.07;10.30;;;;;;;;;;5056847;28;20176;-73
2021/09/17 03:18:18;;;;;;;12.27;10.13;;;;;;;;;;5057931;28;20188;-73
2021/09/17 03:21:22;;;;;;;16.27;10.90;;;;;;;;;;5057772;28;20218;-73
2021/09/17 03:24:28;;;;;;;14.87;9.60;;;;;;;;;;5075708;28;20210;-73
2021/09/17 03:27:31;;;;;;;14.10;10.13;;;;;;;;;;5077151;28;20183;-73
2021/09/17 03:30:36;;;;;;;11.37;9.33;;;;;;;;;;5075265;28;20218;-72
2021/09/17 03:33:40;;;;;;;14.37;10.10;;;;;;;;;;5067980;28;20195;-72
2021/09/17 03:36:45;;;;;;;14.17;10.50;;;;;;;;;;5047712;28;20192;-72
2021/09/17 03:39:49;;;;;;;14.97;10.27;;;;;;;;;;5062526;28;20216;-73
2021/09/17 03:42:52;;;;;;;17.37;11.37;;;;;;;;;;5069969;28;20204;-73
2021/09/17 03:45:56;;;;;;;19.80;10.80;;;;;;;;;;5062824;28;20184;-73
2021/09/17 03:49:01;;;;;;;14.80;10.93;;;;;;;;;;5051500;28;20176;-72
2021/09/17 03:52:05;;;;;;;15.13;10.77;;;;;;;;;;5056112;28;20559;-73
2021/09/17 03:55:10;;;;;;;17.07;10.97;;;;;;;;;;5056033;28;20191;-72
2021/09/17 03:58:14;;;;;;;17.07;11.10;;;;;;;;;;5062395;28;20550;-73
2021/09/17 04:01:18;;;;;;;18.90;11.90;;;;;;;;;;5055086;28;20211;-72
2021/09/17 04:04:22;;;;;;;16.60;11.63;;;;;;;;;;5042379;28;20203;-73
2021/09/17 04:07:26;;;;;;;18.63;12.23;;;;;;;;;;5076431;28;20178;-73
2021/09/17 04:10:30;;;;;;;17.93;12.40;;;;;;;;;;5057139;28;20208;-73
2021/09/17 04:13:34;;;;;;;19.93;12.87;;;;;;;;;;5056015;28;20204;-73
2021/09/17 04:16:38;;;;;;;17.33;12.33;;;;;;;;;;5072429;28;20188;-73
2021/09/17 04:19:43;;;;;;;16.70;12.13;;;;;;;;;;5075815;28;20226;-74
2021/09/17 04:22:47;;;;;;;18.87;12.30;;;;;;;;;;5075869;28;20195;-73
2021/09/17 04:25:51;;;;;;;17.13;11.27;;;;;;;;;;5065086;28;20198;-72
2021/09/17 04:28:55;;;;;;;19.80;12.80;;;;;;;;;;5074563;28;20208;-73
2021/09/17 04:31:59;;;;;;;18.10;13.10;;;;;;;;;;5053043;28;20220;-73
2021/09/17 04:35:04;;;;;;;18.13;11.77;;;;;;;;;;5074732;28;20657;-73
2021/09/17 04:38:11;;;;;;;16.17;11.70;;;;;;;;;;5074041;28;20526;-73
2021/09/17 04:41:14;;;;;;;17.57;12.70;;;;;;;;;;5054300;28;20220;-74
2021/09/17 04:44:18;;;;;;;18.80;12.43;;;;;;;;;;5050087;28;20668;-73
2021/09/17 04:47:23;;;;;;;16.00;11.97;;;;;;;;;;5055427;28;20188;-73
2021/09/17 04:50:27;;;;;;;18.87;12.07;;;;;;;;;;5042884;28;20192;-73
2021/09/17 04:53:31;;;;;;;19.03;12.63;;;;;;;;;;5061056;28;20199;-72
2021/09/17 04:56:38;;;;;;;16.20;11.97;;;;;;;;;;5051218;28;20201;-73
2021/09/17 04:59:42;;;;;;;16.37;12.27;;;;;;;;;;5025145;28;21387;-73
2021/09/17 05:02:46;;;;;;;19.33;12.17;;;;;;;;;;5053958;28;20219;-73
2021/09/17 05:05:50;;;;;;;17.47;12.57;;;;;;;;;;5055917;28;20192;-72
2021/09/17 05:08:54;;;;;;;19.57;13.10;;;;;;;;;;5064615;28;20207;-72
2021/09/17 05:11:58;;;;;;;22.60;11.73;;;;;;;;;;5060555;28;20227;-73
2021/09/17 05:15:03;;;;;;;22.80;12.93;;;;;;;;;;5055650;28;20189;-73
2021/09/17 05:18:07;;;;;;;18.30;13.20;;;;;;;;;;5054845;28;20199;-73
2021/09/17 05:21:12;;;;;;;18.23;11.83;;;;;;;;;;5053296;28;20298;-72
2021/09/17 05:24:16;;;;;;;18.93;12.63;;;;;;;;;;5069804;28;20203;-73
2021/09/17 05:27:20;;;;;;;17.97;12.50;;;;;;;;;;5072615;28;20199;-73
2021/09/17 05:30:24;;;;;;;17.70;12.53;;;;;;;;;;5073887;28;20658;-73
2021/09/17 05:33:29;;;;;;;22.73;11.63;;;;;;;;;;5061374;28;20562;-73
2021/09/17 05:36:33;;;;;;;17.30;10.57;;;;;;;;;;5054385;28;20184;-73
2021/09/17 05:39:37;;;;;;;15.07;10.43;;;;;;;;;;5045624;28;20211;-73
2021/09/17 05:42:41;;;;;;;19.10;12.13;;;;;;;;;;5058113;28;20198;-73
2021/09/17 05:45:45;;;;;;;15.47;12.40;;;;;;;;;;5073509;28;20207;-73
2021/09/17 05:48:49;;;;;;;13.63;11.20;;;;;;;;;;5072567;28;20195;-73
2021/09/17 05:51:53;;;;;;;14.17;11.07;;;;;;;;;;5061278;28;20215;-72
2021/09/17 05:54:58;;;;;;;15.23;11.20;;;;;;;;;;5030705;28;20203;-72
2021/09/17 05:58:02;;;;;;;13.30;11.17;;;;;;;;;;5053219;28;20668;-72
2021/09/17 06:01:07;;;;;;;15.27;11.40;;;;;;;;;;5064257;28;20227;-72
2021/09/17 06:04:11;;;;;;;18.37;11.63;;;;;;;;;;5072822;28;20219;-73
2021/09/17 06:07:15;;;;;;;15.93;11.47;;;;;;;;;;5069515;28;20202;-72
2021/09/17 06:10:20;;;;;;;17.17;12.37;;;;;;;;;;5072543;28;20210;-73
2021/09/17 06:13:24;;;;;;;18.53;12.10;;;;;;;;;;5073837;28;20184;-73
2021/09/17 06:16:28;;;;;;;18.53;12.20;;;;;;;;;;5060508;28;20198;-74
2021/09/17 06:19:32;;;;;;;19.53;12.30;;;;;;;;;;5067720;28;20670;-73
2021/09/17 06:22:39;;;;;;;17.63;12.30;;;;;;;;;;5074096;28;20218;-73
2021/09/17 06:25:45;;;;;;;18.40;13.20;;;;;;;;;;5054628;28;20658;-73
2021/09/17 06:28:49;;;;;;;18.87;12.50;;;;;;;;;;5034463;28;20180;-73
2021/09/17 06:31:53;;;;;;;17.40;12.67;;;;;;;;;;5041932;28;20220;-73
2021/09/17 06:34:58;;;;;;;18.97;14.00;;;;;;;;;;5052424;28;20191;-74
2021/09/17 06:38:02;;;;;;;23.43;12.63;;;;;;;;;;5053545;28;20184;-74
2021/09/17 06:41:06;;;;;;;20.87;13.47;;;;;;;;;;5040756;28;20228;-74
2021/09/17 06:44:11;;;;;;;19.53;12.43;;;;;;;;;;5053489;28;20191;-74
2021/09/17 06:47:15;;;;;;;18.50;13.37;;;;;;;;;;5052712;28;20209;-74
2021/09/17 06:50:21;;;;;;;19.83;13.43;;;;;;;;;;5053126;28;20176;-74
2021/09/17 06:53:25;;;;;;;17.00;12.83;;;;;;;;;;5053110;28;20200;-74
2021/09/17 06:56:30;;;;;;;16.37;12.63;;;;;;;;;;5053129;28;20180;-74
2021/09/17 06:59:34;;;;;;;20.40;12.57;;;;;;;;;;5053044;28;20195;-74
2021/09/17 07:02:38;;;;;;;14.60;11.67;;;;;;;;;;5052966;28;20223;-74
2021/09/17 07:05:42;;;;;;;18.10;13.57;;;;;;;;;;5053014;28;20185;-73
2021/09/17 07:08:46;;;;;;;16.80;13.47;;;;;;;;;;5040757;28;20172;-74
2021/09/17 07:11:50;;;;;;;18.33;13.57;;;;;;;;;;5052886;28;20223;-74
2021/09/17 07:14:54;;;;;;;19.60;12.73;;;;;;;;;;5052405;28;20183;-74
2021/09/17 07:17:58;;;;;;;17.77;12.70;;;;;;;;;;5053157;28;20535;-74
2021/09/17 07:21:02;;;;;;;19.13;14.07;;;;;;;;;;5052753;28;20228;-74
2021/09/17 07:24:07;;;;;;;19.03;14.17;;;;;;;;;;5052820;28;20176;-74
2021/09/17 07:27:11;;;;;;;18.07;12.83;;;;;;;;;;5052031;28;20180;-74
2021/09/17 07:30:16;;;;;;;18.17;14.00;;;;;;;;;;5029140;28;20199;-74
2021/09/17 07:33:20;;;;;;;20.07;14.03;;;;;;;;;;5052233;28;20208;-74
2021/09/17 07:36:24;;;;;;;15.93;13.70;;;;;;;;;;5052992;28;20168;-74
2021/09/17 07:39:29;;;;;;;20.30;13.87;;;;;;;;;;5052751;28;20183;-74
2021/09/17 07:42:33;;;;;;;17.70;13.47;;;;;;;;;;5052127;28;20223;-74
2021/09/17 07:45:37;;;;;;;18.13;13.30;;;;;;;;;;5055765;28;20199;-74
2021/09/17 07:48:41;;;;;;;14.87;12.67;;;;;;;;;;5056289;28;20188;-74
2021/09/17 07:51:45;;;;;;;18.33;13.77;;;;;;;;;;5055431;28;20705;-74
2021/09/17 07:54:49;;;;;;;17.17;12.90;;;;;;;;;;5055872;28;20184;-74
2021/09/17 07:57:54;;;;;;;17.60;14.07;;;;;;;;;;5055302;28;20187;-74
2021/09/17 08:00:58;;;;;;;17.87;14.00;;;;;;;;;;5054968;28;20709;-74
2021/09/17 08:04:02;;;;;;;15.63;13.27;;;;;;;;;;5056203;28;20220;-74
2021/09/17 08:07:07;;;;;;;17.50;14.10;;;;;;;;;;5055881;28;20180;-74
2021/09/17 08:10:11;;;;;;;16.07;13.70;;;;;;;;;;5056386;28;20179;-74
2021/09/17 08:13:16;;;;;;;16.43;12.90;;;;;;;;;;5055009;28;20639;-74
2021/09/17 08:16:20;;;;;;;19.40;14.43;;;;;;;;;;5056041;28;20193;-74
2021/09/17 08:19:25;;;;;;;23.73;13.70;;;;;;;;;;5043716;28;20193;-74
2021/09/17 08:22:28;;;;;;;14.83;13.00;;;;;;;;;;5055038;28;20212;-74
2021/09/17 08:25:33;;;;;;;14.57;12.40;;;;;;;;;;5055545;28;20203;-74
2021/09/17 08:28:37;;;;;;;18.73;11.93;;;;;;;;;;5055781;28;20183;-74
2021/09/17 08:31:42;;;;;;;13.53;11.60;;;;;;;;;;5055659;28;20219;-74
2021/09/17 08:35:09;;;;;;;14.13;11.20;;;;;;;;;;5045707;28;20555;-74
2021/09/17 08:38:34;;;;;;;14.03;12.17;;;;;;;;;;5054567;28;20187;-74
2021/09/17 08:41:43;;;;;;;27.87;13.23;;;;;;;;;;5055662;28;20223;-74
2021/09/17 08:44:47;;;;;;;18.70;13.30;;;;;;;;;;5042884;28;20220;-73
2021/09/17 08:47:57;;;;;;;17.47;13.10;;;;;;;;;;5038911;28;20203;-75
2021/09/17 08:51:02;;;;;;;13.30;11.33;;;;;;;;;;5070786;28;20218;-73
2021/09/17 08:54:06;;;;;;;16.03;12.13;;;;;;;;;;5072870;28;20182;-74
2021/09/17 08:57:10;;;;;;;16.53;13.40;;;;;;;;;;5068330;28;20192;-74
2021/09/17 09:00:27;;;;;;;16.47;13.13;;;;;;;;;;5053679;28;20205;-73
2021/09/17 09:03:35;;;;;;;16.23;12.47;;;;;;;;;;5042582;28;20698;-74
2021/09/17 09:06:42;;;;;;;22.60;13.13;;;;;;;;;;5090529;22;20238;-83
2021/09/17 09:09:47;;;;;;;20.10;13.03;;;;;;;;;;5054956;28;20196;-83
2021/09/17 09:12:57;;;;;;;16.23;13.13;;;;;;;;;;5054497;28;20202;-83
2021/09/17 09:16:01;;;;;;;15.63;11.37;;;;;;;;;;5052880;28;20223;-84
2021/09/17 09:19:33;;;;;;;14.13;12.17;;;;;;;;;;5054170;28;20196;-83
2021/09/17 09:22:37;;;;;;;14.70;11.77;;;;;;;;;;5043058;28;20188;-84
2021/09/17 09:26:00;;;;;;;15.43;12.43;;;;;;;;;;5040412;28;20181;-84
2021/09/17 09:29:23;;;;;;;17.10;12.50;;;;;;;;;;5065251;28;20195;-84
2021/09/17 09:32:29;;;;;;;16.20;12.23;;;;;;;;;;5063778;28;20188;-83
2021/09/17 09:35:33;;;;;;;15.27;11.57;;;;;;;;;;5050480;28;20199;-83
2021/09/17 09:38:55;;;;;;;13.10;11.13;;;;;;;;;;5035631;28;20176;-83
2021/09/17 09:41:59;;;;;;;12.47;10.63;;;;;;;;;;5029836;28;20224;-83
2021/09/17 09:45:07;;;;;;;12.50;10.67;;;;;;;;;;5050093;28;20187;-84
2021/09/17 09:48:11;;;;;;;12.80;11.00;;;;;;;;;;5058031;28;20200;-84
2021/09/17 09:51:16;;;;;;;14.60;10.97;;;;;;;;;;5059850;28;20199;-84
2021/09/17 09:54:23;;;;;;;30.90;12.30;;;;;;;;;;5074522;28;20205;-84
2021/09/17 09:57:30;;;;;;;14.23;11.47;;;;;;;;;;5063066;28;20231;-83
2021/09/17 10:00:35;;;;;;;11.20;10.10;;;;;;;;;;5072948;28;20175;-84
2021/09/17 10:03:40;;;;;;;12.43;10.20;;;;;;;;;;5043750;28;20186;-84
2021/09/17 10:06:45;;;;;;;18.47;11.07;;;;;;;;;;5054356;28;20228;-84
2021/09/17 10:09:50;;;;;;;11.23;10.07;;;;;;;;;;5033525;28;20195;-83
2021/09/17 10:12:54;;;;;;;12.20;10.07;;;;;;;;;;5032528;28;20188;-84
2021/09/17 10:15:58;;;;;;;12.30;11.07;;;;;;;;;;5038609;28;20219;-83
2021/09/17 10:19:04;;;;;;;10.60;9.50;;;;;;;;;;5060356;28;20680;-83
2021/09/17 10:22:08;;;;;;;10.13;9.03;;;;;;;;;;5061687;28;20203;-84
2021/09/17 10:25:16;;;;;;;10.83;9.53;;;;;;;;;;5032552;28;20624;-84
2021/09/17 10:28:20;;;;;;;12.23;9.83;;;;;;;;;;5069033;28;20207;-84
2021/09/17 10:31:24;;;;;;;9.70;8.37;;;;;;;;;;5077757;28;20191;-84
2021/09/17 10:34:41;;;;;;;11.33;8.33;;;;;;;;;;5053055;28;20195;-84
2021/09/17 10:38:06;;;;;;;21.27;10.10;;;;;;;;;;5043930;28;20216;-84
2021/09/17 10:41:12;;;;;;;15.83;9.47;;;;;;;;;;5049060;28;20224;-84
2021/09/17 10:44:16;;;;;;;11.97;9.30;;;;;;;;;;5062432;28;20179;-84
2021/09/17 10:47:56;;;;;;;13.73;9.00;;;;;;;;;;5071643;28;20227;-85
2021/09/17 10:51:03;;;;;;;12.47;8.50;;;;;;;;;;5060006;28;20179;-84
2021/09/17 10:54:19;;;;;;;12.83;7.17;;;;;;;;;;5082583;28;20199;-84
2021/09/17 10:57:23;;;;;;;6.93;5.97;;;;;;;;;;5061467;28;20223;-84
2021/09/17 11:01:01;;;;;;;7.80;5.63;;;;;;;;;;5036433;28;20193;-84
2021/09/17 11:04:19;;;;;;;8.07;4.90;;;;;;;;;;5060856;28;20654;-84
2021/09/17 11:07:29;;;;;;;6.87;4.87;;;;;;;;;;5073376;28;20227;-84
2021/09/17 11:10:35;;;;;;;8.80;6.43;;;;;;;;;;5031725;28;20177;-84
2021/09/17 11:13:45;;;;;;;6.67;5.10;;;;;;;;;;5029501;28;20180;-86
2021/09/17 11:16:52;;;;;;;8.17;4.90;;;;;;;;;;5049380;28;20219;-84
2021/09/17 11:20:00;;;;;;;7.23;4.77;;;;;;;;;;5048847;28;20193;-85
2021/09/17 11:23:08;;;;;;;18.00;4.20;;;;;;;;;;5038491;28;20215;-85
2021/09/17 11:26:17;;;;;;;4.27;3.40;;;;;;;;;;5081686;28;20222;-85
2021/09/17 11:29:24;;;;;;;5.53;4.13;;;;;;;;;;5061036;28;20195;-87
2021/09/17 11:32:29;;;;;;;9.80;4.27;;;;;;;;;;5050749;28;20187;-85
2021/09/17 11:35:38;;;;;;;7.60;4.37;;;;;;;;;;5063297;28;20662;-86
2021/09/17 11:38:43;;;;;;;7.00;4.03;;;;;;;;;;5038926;28;20204;-85
2021/09/17 11:41:53;;;;;;;3.90;3.57;;;;;;;;;;5016288;28;20208;-85
2021/09/17 11:44:58;;;;;;;3.47;3.17;;;;;;;;;;5027882;28;20622;-85
2021/09/17 11:48:04;;;;;;;14.40;4.00;;;;;;;;;;5060364;28;20192;-84
2021/09/17 11:51:11;;;;;;;5.97;3.60;;;;;;;;;;5063668;28;20184;-84
2021/09/17 11:54:24;;;;;;;4.83;3.37;;;;;;;;;;5047946;28;20193;-85
2021/09/17 11:57:30;;;;;;;5.37;4.03;;;;;;;;;;5060176;28;20223;-85
2021/09/17 12:00:34;;;;;;;4.63;2.50;;;;;;;;;;5048320;28;20183;-86
2021/09/17 12:03:39;;;;;;;9.07;2.53;;;;;;;;;;5046345;28;20180;-84
2021/09/17 12:06:44;;;;;;;4.03;2.70;;;;;;;;;;5045847;28;20234;-84
2021/09/17 12:09:48;;;;;;;3.50;2.30;;;;;;;;;;5063778;28;20191;-85
2021/09/17 12:12:59;;;;;;;3.17;2.10;;;;;;;;;;5042084;28;20201;-85
2021/09/17 12:16:09;;;;;;;2.33;2.00;;;;;;;;;;5053734;28;20220;-86
2021/09/17 12:19:13;;;;;;;2.27;1.90;;;;;;;;;;5012764;28;20647;-84
2021/09/17 12:22:47;;;;;;;3.17;2.60;;;;;;;;;;5031681;28;20223;-85
2021/09/17 12:25:51;;;;;;;3.70;2.50;;;;;;;;;;5043951;28;20212;-84
2021/09/17 12:28:56;;;;;;;2.63;2.40;;;;;;;;;;5067084;28;20596;-84
2021/09/17 12:32:13;;;;;;;1.87;1.67;;;;;;;;;;5074136;28;20195;-84
2021/09/17 12:35:17;;;;;;;7.43;2.10;;;;;;;;;;5063879;28;20175;-85
2021/09/17 12:38:25;;;;;;;13.30;1.90;;;;;;;;;;5034614;28;20187;-86
2021/09/17 12:41:29;;;;;;;1.70;1.40;;;;;;;;;;5070711;28;20228;-85
2021/09/17 12:44:41;;;;;;;3.50;2.80;;;;;;;;;;5043381;28;20188;-85
2021/09/17 12:48:00;;;;;;;3.37;2.93;;;;;;;;;;5054827;28;20220;-86
2021/09/17 12:51:05;;;;;;;22.50;3.40;;;;;;;;;;5035885;28;20188;-85
2021/09/17 12:54:10;;;;;;;6.53;2.30;;;;;;;;;;5063573;28;20203;-85
2021/09/17 12:57:19;;;;;;;47.83;4.70;;;;;;;;;;5062998;28;20231;-85
2021/09/17 13:00:24;;;;;;;5.50;1.50;;;;;;;;;;5064643;28;20195;-84
2021/09/17 13:03:28;;;;;;;3.17;1.70;;;;;;;;;;5077374;28;20658;-84
2021/09/17 13:06:33;;;;;;;3.67;1.70;;;;;;;;;;5033667;28;20236;-85
2021/09/17 13:09:37;;;;;;;3.70;1.77;;;;;;;;;;5048329;28;20183;-85
2021/09/17 13:12:41;;;;;;;3.60;2.00;;;;;;;;;;5043829;28;20187;-85
2021/09/17 13:15:47;;;;;;;2.90;2.13;;;;;;;;;;5044342;28;20228;-85
2021/09/17 13:18:51;;;;;;;3.03;2.00;;;;;;;;;;5034260;28;20184;-85
2021/09/17 13:21:55;;;;;;;11.63;4.03;;;;;;;;;;5058905;28;20215;-84
2021/09/17 13:25:00;;;;;;;9.13;2.90;;;;;;;;;;5053911;28;20535;-84
2021/09/17 13:28:06;;;;;;;4.33;2.17;;;;;;;;;;5043031;28;20188;-84
2021/09/17 13:31:10;;;;;;;3.23;1.80;;;;;;;;;;5052131;28;20187;-87
2021/09/17 13:34:14;;;;;;;9.07;2.17;;;;;;;;;;5034269;28;20195;-85
2021/09/17 13:37:19;;;;;;;6.20;1.70;;;;;;;;;;5027733;28;20224;-85
2021/09/17 13:40:24;;;;;;;2.50;2.10;;;;;;;;;;5021250;28;20188;-85
2021/09/17 13:43:29;;;;;;;68.53;4.17;;;;;;;;;;5043305;28;20211;-85
2021/09/17 13:46:33;;;;;;;13.20;4.23;;;;;;;;;;5042799;28;20227;-87
2021/09/17 13:49:38;;;;;;;13.77;5.53;;;;;;;;;;5021173;28;20184;-87
2021/09/17 13:52:44;;;;;;;4.73;2.40;;;;;;;;;;5021008;28;20183;-87
2021/09/17 13:55:50;;;;;;;10.13;4.00;;;;;;;;;;5020594;28;20222;-87
2021/09/17 13:58:54;;;;;;;13.37;3.07;;;;;;;;;;5018876;28;20547;-87
2021/09/17 14:01:59;;;;;;;2.60;1.97;;;;;;;;;;5034116;28;20205;-86
2021/09/17 14:05:04;;;;;;;9.57;3.03;;;;;;;;;;5045547;28;20206;-87
2021/09/17 14:08:08;;;;;;;3.90;2.20;;;;;;;;;;5022621;28;20179;-87
2021/09/17 14:11:12;;;;;;;5.60;2.07;;;;;;;;;;5033954;28;20192;-87
2021/09/17 14:14:19;;;;;;;101.63;7.50;;;;;;;;;;5023116;28;20187;-87
2021/09/17 14:17:24;;;;;;;10.23;2.50;;;;;;;;;;5011572;28;20214;-87
2021/09/17 14:20:28;;;;;;;10.73;2.90;;;;;;;;;;5021212;28;20176;-86
2021/09/17 14:23:32;;;;;;;6.93;2.37;;;;;;;;;;5042755;28;20211;-86
2021/09/17 14:26:38;;;;;;;5.33;2.17;;;;;;;;;;5009276;28;20220;-87
2021/09/17 14:29:46;;;;;;;23.67;2.20;;;;;;;;;;5009882;28;20200;-87
2021/09/17 14:32:56;;;;;;;5.33;2.03;;;;;;;;;;5031884;28;20184;-87
2021/09/17 14:36:00;;;;;;;29.97;3.30;;;;;;;;;;5021707;28;20216;-87
2021/09/17 14:39:05;;;;;;;4.50;2.30;;;;;;;;;;5021490;28;20180;-88
2021/09/17 14:42:10;;;;;;;4.87;2.57;;;;;;;;;;5019855;28;20228;-88
2021/09/17 14:45:14;;;;;;;2.57;2.37;;;;;;;;;;5008883;28;20528;-89
2021/09/17 14:48:18;;;;;;;9.73;3.00;;;;;;;;;;5020023;28;20196;-88
2021/09/17 14:51:24;;;;;;;4.90;2.30;;;;;;;;;;5020253;28;20173;-88
2021/09/17 14:54:28;;;;;;;154.03;11.90;;;;;;;;;;5011633;28;20177;-89
2021/09/17 14:57:32;;;;;;;28.57;3.03;;;;;;;;;;5012573;28;20243;-89
2021/09/17 15:00:36;;;;;;;22.63;2.97;;;;;;;;;;5024407;28;20188;-89
2021/09/17 15:03:41;;;;;;;8.27;2.10;;;;;;;;;;5012361;28;20204;-89
2021/09/17 15:06:45;;;;;;;9.40;2.33;;;;;;;;;;5012230;28;20227;-87
2021/09/17 15:09:49;;;;;;;10.37;2.13;;;;;;;;;;5012240;28;20192;-90
2021/09/17 15:12:53;;;;;;;8.03;1.80;;;;;;;;;;5024884;28;20196;-88
2021/09/17 15:15:58;;;;;;;3.43;1.67;;;;;;;;;;5013633;28;20217;-88
2021/09/17 15:19:02;;;;;;;12.70;2.07;;;;;;;;;;5019063;28;20244;-89
2021/09/17 15:22:07;;;;;;;13.47;2.07;;;;;;;;;;5013499;28;20204;-88
2021/09/17 15:25:11;;;;;;;10.73;1.90;;;;;;;;;;5013750;28;20208;-88
2021/09/17 15:28:16;;;;;;;18.53;2.13;;;;;;;;;;5012757;28;20185;-89
2021/09/17 15:31:20;;;;;;;12.03;1.97;;;;;;;;;;5013072;28;20181;-86
2021/09/17 15:34:24;;;;;;;6.13;1.47;;;;;;;;;;5012855;28;20173;-88
2021/09/17 15:37:29;;;;;;;5.23;1.57;;;;;;;;;;5012419;28;20220;-89
2021/09/17 15:40:33;;;;;;;4.00;1.70;;;;;;;;;;5012271;28;20185;-88
2021/09/17 15:43:37;;;;;;;7.10;1.50;;;;;;;;;;5012140;28;20204;-89
2021/09/17 15:46:42;;;;;;;4.40;1.70;;;;;;;;;;5013433;28;20217;-89
2021/09/17 15:49:48;;;;;;;5.57;1.40;;;;;;;;;;5024850;28;20533;-88
2021/09/17 15:52:53;;;;;;;3.40;1.37;;;;;;;;;;5024888;28;20185;-88
2021/09/17 15:55:59;;;;;;;5.40;1.60;;;;;;;;;;5013730;28;20212;-88
2021/09/17 15:59:03;;;;;;;4.10;1.60;;;;;;;;;;5024559;28;20187;-83
2021/09/17 16:02:08;;;;;;;4.00;1.40;;;;;;;;;;5052474;28;20184;-82
2021/09/17 16:05:12;;;;;;;12.17;1.80;;;;;;;;;;5037151;28;20184;-83
2021/09/17 16:08:17;;;;;;;3.23;1.83;;;;;;;;;;5050426;28;20188;-83
2021/09/17 16:11:21;;;;;;;3.60;1.60;;;;;;;;;;5050862;28;20567;-82
2021/09/17 16:14:25;;;;;;;2.97;1.50;;;;;;;;;;5029495;28;20180;-82
2021/09/17 16:17:29;;;;;;;3.27;1.53;;;;;;;;;;5042218;28;20238;-85
2021/09/17 16:20:35;;;;;;;3.30;1.50;;;;;;;;;;5062654;28;20195;-86
2021/09/17 16:23:39;;;;;;;8.47;1.70;;;;;;;;;;5060803;28;20211;-85
2021/09/17 16:26:43;;;;;;;8.63;1.80;;;;;;;;;;5049239;28;20559;-84
2021/09/17 16:29:47;;;;;;;3.53;1.67;;;;;;;;;;5027511;28;20196;-85
2021/09/17 16:32:51;;;;;;;5.13;2.00;;;;;;;;;;5048446;28;20179;-84
2021/09/17 16:35:55;;;;;;;5.33;1.90;;;;;;;;;;5060346;28;20638;-85
2021/09/17 16:39:00;;;;;;;5.20;1.83;;;;;;;;;;5045359;28;20187;-84
2021/09/17 16:42:05;;;;;;;5.13;1.40;;;;;;;;;;5018664;28;20196;-84
2021/09/17 16:45:10;;;;;;;3.33;1.60;;;;;;;;;;5036139;28;20211;-85
2021/09/17 16:48:15;;;;;;;2.40;1.70;;;;;;;;;;5031491;28;20184;-84
2021/09/17 16:51:19;;;;;;;5.63;1.97;;;;;;;;;;5050706;28;20539;-85
2021/09/17 16:54:24;;;;;;;36.30;4.33;;;;;;;;;;5042841;28;20180;-86
2021/09/17 16:57:29;;;;;;;10.20;3.23;;;;;;;;;;5059063;28;20689;-83
2021/09/17 17:00:33;;;;;;;9.50;3.40;;;;;;;;;;5040036;28;20618;-83
2021/09/17 17:03:42;;;;;;;9.93;3.30;;;;;;;;;;5048298;28;20685;-83
2021/09/17 17:06:47;;;;;;;4.40;2.63;;;;;;;;;;5052250;28;20235;-83
2021/09/17 17:09:51;;;;;;;13.63;3.13;;;;;;;;;;5029432;28;20193;-85
2021/09/17 17:12:56;;;;;;;6.13;2.70;;;;;;;;;;5040925;28;20187;-82
2021/09/17 17:16:03;;;;;;;3.10;2.80;;;;;;;;;;5020018;28;20556;-84
2021/09/17 17:19:08;;;;;;;4.00;2.20;;;;;;;;;;5009113;28;20189;-84
2021/09/17 17:22:12;;;;;;;3.33;2.80;;;;;;;;;;5031295;28;20189;-84
2021/09/17 17:25:19;;;;;;;48.03;4.00;;;;;;;;;;5032983;28;20207;-82
2021/09/17 17:28:23;;;;;;;16.13;4.60;;;;;;;;;;5048338;28;20183;-84
2021/09/17 17:31:28;;;;;;;4.53;2.87;;;;;;;;;;5060377;28;20172;-83
2021/09/17 17:34:32;;;;;;;6.70;3.03;;;;;;;;;;5010427;28;20176;-85
2021/09/17 17:37:37;;;;;;;2.90;2.70;;;;;;;;;;5021440;28;20216;-85
2021/09/17 17:40:41;;;;;;;3.13;2.60;;;;;;;;;;5009097;28;20184;-84
2021/09/17 17:43:46;;;;;;;4.27;2.60;;;;;;;;;;5013547;28;20217;-82
2021/09/17 17:46:50;;;;;;;4.23;2.77;;;;;;;;;;5020775;28;20220;-82
2021/09/17 17:49:55;;;;;;;4.37;2.87;;;;;;;;;;5020595;28;20193;-82
2021/09/17 17:53:00;;;;;;;3.43;3.13;;;;;;;;;;5030970;28;20193;-85
2021/09/17 17:56:08;;;;;;;3.87;3.07;;;;;;;;;;5020052;28;20228;-85
2021/09/17 17:59:13;;;;;;;5.63;3.70;;;;;;;;;;5032171;28;20642;-85
2021/09/17 18:02:18;;;;;;;4.47;3.60;;;;;;;;;;5039365;28;20536;-82
2021/09/17 18:05:22;;;;;;;6.33;3.10;;;;;;;;;;5039589;28;20200;-85
2021/09/17 18:08:26;;;;;;;4.87;3.70;;;;;;;;;;5039123;28;20176;-85
2021/09/17 18:11:30;;;;;;;4.67;3.70;;;;;;;;;;5051217;28;20651;-83
2021/09/17 18:14:35;;;;;;;5.20;3.60;;;;;;;;;;5055231;28;20188;-83